Time;durP1;ratioP1;P1;durP2;ratioP2;P2;SDS_P1;SDS_P2;PMS_P1;PMS_P2;Temp;Humidity;BMP_temperature;BMP_pressure;BME280_temperature;BME280_humidity;BME280_pressure;Samples;Min_cycle;Max_cycle;Signal;HPM_P1;HPM_P2
2022/10/17 00:02:36;;;;;;;10.13;7.03;;;16.00;99.90;;;;;;10332812;28;20211;-77
2022/10/17 00:07:38;;;;;;;12.70;6.10;;;16.00;99.90;;;;;;10331434;28;20171;-77
2022/10/17 00:12:41;;;;;;;14.40;5.83;;;16.00;99.90;;;;;;10339761;28;20290;-79
2022/10/17 00:17:43;;;;;;;6.63;6.00;;;16.00;99.90;;;;;;10338848;28;20711;-78
2022/10/17 00:22:46;;;;;;;9.23;5.43;;;16.00;99.90;;;;;;10355178;28;20242;-79
2022/10/17 00:27:49;;;;;;;84.00;37.70;;;15.90;99.90;;;;;;10363385;28;20215;-78
2022/10/17 00:32:51;;;;;;;28.10;14.90;;;15.90;99.90;;;;;;10369126;28;20211;-79
2022/10/17 00:37:53;;;;;;;27.30;12.07;;;15.90;99.90;;;;;;10355049;28;20242;-79
2022/10/17 00:42:57;;;;;;;43.73;21.20;;;15.90;99.90;;;;;;10354801;28;20211;-79
2022/10/17 00:48:03;;;;;;;11.90;7.70;;;15.90;99.90;;;;;;10354013;28;20274;-79
2022/10/17 00:53:08;;;;;;;15.33;8.20;;;15.80;99.90;;;;;;10354252;28;20217;-79
2022/10/17 00:58:11;;;;;;;8.17;6.40;;;15.80;99.90;;;;;;10334600;28;20274;-79
2022/10/17 01:03:14;;;;;;;10.57;5.57;;;15.80;99.90;;;;;;10332620;28;20199;-79
2022/10/17 01:08:17;;;;;;;6.67;5.73;;;15.70;99.90;;;;;;10350784;28;20191;-78
2022/10/17 01:13:25;;;;;;;8.73;6.00;;;15.80;99.90;;;;;;10336511;28;20283;-78
2022/10/17 01:18:42;;;;;;;5.67;5.27;;;15.70;99.90;;;;;;10353162;28;20219;-78
2022/10/17 01:24:08;;;;;;;17.80;8.50;;;15.70;99.90;;;;;;10336463;28;20241;-79
2022/10/17 01:29:37;;;;;;;11.47;7.50;;;15.70;99.90;;;;;;10334220;28;20559;-79
2022/10/17 01:34:53;;;;;;;14.63;7.00;;;15.70;99.90;;;;;;10335249;28;20203;-79
2022/10/17 01:40:07;;;;;;;5.80;5.40;;;15.70;99.90;;;;;;10351905;28;20273;-76
2022/10/17 01:45:14;;;;;;;6.20;5.67;;;15.70;99.90;;;;;;10338926;28;20199;-79
2022/10/17 01:50:23;;;;;;;12.17;7.97;;;15.70;99.90;;;;;;10360812;28;20221;-79
2022/10/17 01:55:29;;;;;;;20.47;10.60;;;15.70;99.90;;;;;;10337496;28;20195;-79
2022/10/17 02:00:34;;;;;;;23.17;12.43;;;15.70;99.90;;;;;;10327729;28;20223;-79
2022/10/17 02:05:40;;;;;;;8.43;6.67;;;15.70;99.90;;;;;;10344195;28;20201;-80
2022/10/17 02:10:47;;;;;;;6.80;6.20;;;15.70;99.90;;;;;;10339729;28;20227;-78
2022/10/17 02:16:06;;;;;;;7.23;6.43;;;15.70;99.90;;;;;;10353906;28;20195;-77
2022/10/17 02:21:18;;;;;;;6.60;6.20;;;15.60;99.90;;;;;;10336838;28;20223;-79
2022/10/17 02:26:28;;;;;;;9.53;7.90;;;15.60;99.90;;;;;;10352177;28;20199;-79
2022/10/17 02:31:36;;;;;;;10.53;8.20;;;15.50;99.90;;;;;;10341443;28;20629;-78
2022/10/17 02:36:43;;;;;;;9.07;8.27;;;15.50;99.90;;;;;;10335005;28;20565;-77
2022/10/17 02:41:48;;;;;;;11.23;6.97;;;15.50;99.90;;;;;;10351651;28;20258;-77
2022/10/17 02:46:56;;;;;;;8.93;6.50;;;15.50;99.90;;;;;;10334460;28;20198;-77
2022/10/17 02:52:08;;;;;;;7.70;7.10;;;15.40;99.90;;;;;;10335066;28;20702;-76
2022/10/17 02:57:18;;;;;;;7.90;7.37;;;15.40;99.90;;;;;;10350817;28;20619;-76
2022/10/17 03:02:21;;;;;;;7.87;7.23;;;15.40;99.90;;;;;;10350964;28;20598;-76
2022/10/17 03:07:24;;;;;;;9.00;8.40;;;15.40;99.90;;;;;;10335455;28;20187;-77
2022/10/17 03:12:26;;;;;;;7.90;7.10;;;15.40;99.90;;;;;;10334300;28;20257;-78
2022/10/17 03:17:28;;;;;;;8.20;7.70;;;15.40;99.90;;;;;;10333810;28;20641;-78
2022/10/17 03:22:32;;;;;;;10.77;7.10;;;15.40;99.90;;;;;;10333924;28;20277;-77
2022/10/17 03:27:36;;;;;;;7.77;7.00;;;15.40;99.90;;;;;;10333726;28;20188;-78
2022/10/17 03:32:38;;;;;;;8.57;6.93;;;15.30;99.90;;;;;;10334596;28;20615;-75
2022/10/17 03:37:42;;;;;;;8.00;7.40;;;15.30;99.90;;;;;;10333076;28;20219;-78
2022/10/17 03:42:44;;;;;;;9.17;8.23;;;15.30;99.90;;;;;;10332385;28;20247;-76
2022/10/17 03:47:47;;;;;;;9.50;8.17;;;15.20;99.90;;;;;;10333843;28;20275;-77
2022/10/17 03:52:52;;;;;;;7.80;7.20;;;15.30;99.90;;;;;;10332303;28;20250;-76
2022/10/17 03:57:54;;;;;;;9.20;8.27;;;15.20;99.90;;;;;;10332053;28;20211;-76
2022/10/17 04:02:58;;;;;;;12.90;8.00;;;15.30;99.90;;;;;;10332701;28;20215;-77
2022/10/17 04:08:03;;;;;;;6.47;5.97;;;15.30;99.90;;;;;;10331672;28;20274;-77
2022/10/17 04:13:25;;;;;;;16.30;8.67;;;15.30;99.90;;;;;;10331865;28;20290;-76
2022/10/17 04:18:27;;;;;;;10.97;9.97;;;15.20;99.90;;;;;;10331494;28;20219;-77
2022/10/17 04:23:31;;;;;;;7.33;6.90;;;15.20;99.90;;;;;;10331472;28;20195;-77
2022/10/17 04:28:39;;;;;;;12.20;8.73;;;15.20;99.90;;;;;;10331236;28;20219;-77
2022/10/17 04:33:42;;;;;;;9.17;8.67;;;15.20;99.90;;;;;;10330840;28;20207;-76
2022/10/17 04:38:45;;;;;;;8.60;8.00;;;15.20;99.90;;;;;;10332004;28;20222;-76
2022/10/17 04:43:48;;;;;;;8.70;8.00;;;15.20;99.90;;;;;;10329952;28;20205;-76
2022/10/17 04:48:50;;;;;;;8.90;8.30;;;15.10;99.90;;;;;;10346372;28;20305;-76
2022/10/17 04:53:55;;;;;;;8.20;7.60;;;15.10;99.90;;;;;;10328499;28;20213;-78
2022/10/17 04:58:59;;;;;;;7.70;7.10;;;15.10;99.90;;;;;;10330536;28;20222;-77
2022/10/17 05:04:02;;;;;;;8.47;7.67;;;15.10;99.90;;;;;;10329328;28;20725;-77
2022/10/17 05:15:26;;;;;;;8.43;7.60;;;15.00;99.90;;;;;;10216198;29;20208;-77
2022/10/17 05:20:30;;;;;;;9.27;8.67;;;15.00;99.90;;;;;;10328996;28;20254;-78
2022/10/17 05:25:34;;;;;;;9.37;8.60;;;15.00;99.90;;;;;;10324663;28;20229;-79
2022/10/17 05:30:36;;;;;;;9.27;7.47;;;15.10;99.90;;;;;;10323270;28;20212;-79
2022/10/17 05:35:40;;;;;;;8.30;7.67;;;15.10;99.90;;;;;;10337069;28;20231;-78
2022/10/17 05:40:44;;;;;;;10.23;9.40;;;15.10;99.90;;;;;;10337485;28;20602;-78
2022/10/17 05:45:46;;;;;;;9.20;8.40;;;15.10;99.90;;;;;;10338028;28;20199;-78
2022/10/17 05:50:59;;;;;;;8.90;8.10;;;15.20;99.90;;;;;;10332435;28;20222;-78
2022/10/17 05:56:04;;;;;;;9.57;7.80;;;15.20;99.90;;;;;;10332020;28;20222;-78
2022/10/17 06:01:08;;;;;;;8.23;7.63;;;15.20;99.90;;;;;;10324796;28;20231;-78
2022/10/17 06:06:12;;;;;;;12.23;9.20;;;15.20;99.90;;;;;;10316071;28;20206;-78
2022/10/17 06:11:19;;;;;;;9.27;8.40;;;15.20;99.90;;;;;;10380847;23;20227;-80
2022/10/17 06:16:22;;;;;;;12.50;8.90;;;15.30;99.90;;;;;;10403689;28;20201;-81
2022/10/17 06:21:26;;;;;;;10.30;9.40;;;15.30;99.90;;;;;;10366015;28;20247;-80
2022/10/17 06:26:38;;;;;;;21.27;16.60;;;15.30;99.90;;;;;;10388438;28;20263;-81
2022/10/17 06:31:42;;;;;;;11.00;9.93;;;15.30;99.90;;;;;;10383102;28;20218;-81
2022/10/17 06:36:44;;;;;;;12.07;10.87;;;15.30;99.90;;;;;;10399448;28;20245;-80
2022/10/17 06:41:48;;;;;;;19.17;9.40;;;15.30;99.90;;;;;;10369664;28;20223;-81
2022/10/17 06:46:54;;;;;;;8.70;7.90;;;15.30;99.90;;;;;;10385097;28;20209;-80
2022/10/17 06:51:57;;;;;;;7.67;6.80;;;15.20;99.90;;;;;;10384409;28;20219;-81
2022/10/17 06:57:10;;;;;;;10.17;8.50;;;15.30;99.90;;;;;;10384537;28;20198;-81
2022/10/17 07:02:33;;;;;;;11.57;10.67;;;15.30;99.90;;;;;;10376338;28;20232;-81
2022/10/17 07:07:36;;;;;;;13.13;9.47;;;15.30;99.90;;;;;;10384400;28;20194;-80
2022/10/17 07:12:43;;;;;;;9.20;8.40;;;15.40;99.90;;;;;;10350675;28;20313;-80
2022/10/17 07:17:49;;;;;;;12.07;9.37;;;15.40;99.90;;;;;;10381862;28;20213;-81
2022/10/17 07:22:52;;;;;;;10.77;9.83;;;15.50;99.90;;;;;;10380466;28;20229;-81
2022/10/17 07:27:55;;;;;;;9.70;9.00;;;15.50;99.90;;;;;;10394503;28;20187;-80
2022/10/17 07:32:58;;;;;;;10.13;9.50;;;15.60;99.90;;;;;;10410188;28;20225;-80
2022/10/17 07:38:00;;;;;;;11.57;10.37;;;15.70;99.90;;;;;;10409341;28;20214;-80
2022/10/17 07:43:05;;;;;;;8.10;7.47;;;15.80;99.90;;;;;;10401899;28;20264;-80
2022/10/17 07:48:07;;;;;;;14.00;11.00;;;15.80;99.90;;;;;;10393662;28;20186;-81
2022/10/17 07:53:14;;;;;;;9.87;9.13;;;15.90;99.90;;;;;;10413081;28;20221;-81
2022/10/17 07:58:20;;;;;;;10.03;7.70;;;16.00;99.90;;;;;;10399032;28;20206;-79
2022/10/17 08:03:24;;;;;;;7.63;7.03;;;16.10;99.90;;;;;;10424561;28;20233;-80
2022/10/17 08:08:27;;;;;;;7.20;6.70;;;16.20;99.90;;;;;;10418910;28;20224;-80
2022/10/17 08:13:40;;;;;;;9.00;8.40;;;16.30;99.90;;;;;;10413540;28;20226;-80
2022/10/17 08:18:48;;;;;;;8.77;8.00;;;16.40;99.90;;;;;;10422469;28;20233;-81
2022/10/17 08:23:52;;;;;;;12.53;8.20;;;16.50;99.90;;;;;;10394612;28;20200;-79
2022/10/17 08:28:58;;;;;;;8.20;7.70;;;16.60;99.90;;;;;;10398452;28;20661;-81
2022/10/17 08:34:00;;;;;;;9.07;8.50;;;16.70;99.90;;;;;;10392750;28;20194;-81
2022/10/17 08:39:03;;;;;;;8.23;7.43;;;16.80;99.90;;;;;;10400541;28;20301;-80
2022/10/17 08:44:19;;;;;;;9.50;8.80;;;16.90;99.90;;;;;;10390785;28;20268;-80
2022/10/17 08:49:27;;;;;;;9.27;8.60;;;17.00;99.90;;;;;;10400546;28;20206;-81
2022/10/17 08:54:40;;;;;;;17.80;10.90;;;17.10;99.90;;;;;;10401291;28;20237;-81
2022/10/17 08:59:56;;;;;;;9.80;9.00;;;17.10;99.90;;;;;;10394166;28;20637;-81
2022/10/17 09:05:23;;;;;;;11.60;10.30;;;17.20;99.90;;;;;;10421162;28;20576;-81
2022/10/17 09:10:59;;;;;;;9.33;8.53;;;17.30;99.90;;;;;;10402878;28;21316;-80
2022/10/17 09:16:18;;;;;;;11.50;10.37;;;17.40;99.90;;;;;;10372620;28;20232;-80
2022/10/17 09:21:27;;;;;;;11.47;10.07;;;17.50;99.90;;;;;;10400357;28;20245;-81
2022/10/17 09:26:36;;;;;;;17.53;10.37;;;17.50;99.90;;;;;;10400557;28;20273;-81
2022/10/17 09:31:45;;;;;;;9.33;8.70;;;17.60;99.90;;;;;;10408402;28;20649;-80
2022/10/17 09:36:47;;;;;;;9.60;8.60;;;17.70;99.90;;;;;;10410739;28;20194;-81
2022/10/17 09:41:51;;;;;;;8.77;7.33;;;17.80;99.90;;;;;;10391724;28;20228;-80
2022/10/17 09:47:12;;;;;;;8.30;7.70;;;17.90;99.90;;;;;;10413845;28;20194;-81
2022/10/17 09:52:18;;;;;;;8.53;7.80;;;17.90;99.90;;;;;;10396482;28;20241;-80
2022/10/17 09:57:22;;;;;;;9.10;8.30;;;17.90;99.90;;;;;;10382226;28;20281;-81
2022/10/17 10:02:27;;;;;;;10.27;8.20;;;18.00;99.90;;;;;;10353327;28;20257;-81
2022/10/17 10:07:31;;;;;;;7.70;7.20;;;17.90;99.90;;;;;;10385143;28;20286;-81
2022/10/17 10:12:36;;;;;;;7.17;6.37;;;18.00;99.90;;;;;;10349992;28;20210;-80
2022/10/17 10:17:41;;;;;;;7.07;6.67;;;18.00;99.90;;;;;;10360446;28;20194;-80
2022/10/17 10:22:43;;;;;;;8.20;7.70;;;18.10;99.90;;;;;;10356122;28;20222;-80
2022/10/17 10:27:47;;;;;;;7.20;6.80;;;18.10;99.90;;;;;;10379518;28;20264;-81
2022/10/17 10:32:53;;;;;;;7.30;6.90;;;18.20;99.90;;;;;;10358370;28;20206;-81
2022/10/17 10:37:58;;;;;;;7.00;6.50;;;18.20;99.90;;;;;;10340360;28;20249;-80
2022/10/17 10:43:01;;;;;;;7.93;6.63;;;18.20;99.90;;;;;;10374564;28;20777;-80
2022/10/17 10:48:14;;;;;;;6.73;6.23;;;18.20;99.90;;;;;;10362407;28;20198;-81
2022/10/17 10:53:30;;;;;;;5.00;4.80;;;18.20;99.90;;;;;;10364584;28;20207;-81
2022/10/17 10:58:42;;;;;;;6.10;5.80;;;18.30;99.90;;;;;;10369570;28;20566;-80
2022/10/17 11:03:59;;;;;;;6.83;5.63;;;18.30;99.90;;;;;;10367864;28;20216;-80
2022/10/17 11:09:13;;;;;;;5.00;4.40;;;18.40;99.90;;;;;;10374120;28;20201;-80
2022/10/17 11:14:21;;;;;;;6.27;5.20;;;18.40;99.90;;;;;;10393544;28;20633;-80
2022/10/17 11:19:33;;;;;;;6.23;5.10;;;18.50;99.90;;;;;;10386966;28;20226;-80
2022/10/17 11:24:40;;;;;;;6.00;5.50;;;18.60;99.90;;;;;;10397528;28;20190;-82
2022/10/17 11:29:44;;;;;;;6.30;5.90;;;18.70;99.90;;;;;;10392948;28;20226;-81
2022/10/17 11:34:51;;;;;;;6.53;5.70;;;18.80;99.90;;;;;;10391687;28;20199;-81
2022/10/17 11:39:56;;;;;;;5.57;5.20;;;18.80;99.90;;;;;;10370070;28;20712;-81
2022/10/17 11:45:03;;;;;;;4.37;4.00;;;18.80;99.90;;;;;;10381862;28;20215;-81
2022/10/17 11:50:18;;;;;;;5.97;5.40;;;18.90;99.90;;;;;;10385366;28;20218;-81
2022/10/17 11:55:23;;;;;;;6.47;5.30;;;19.00;99.90;;;;;;10367095;28;20212;-80
2022/10/17 12:00:33;;;;;;;6.67;5.67;;;19.10;99.90;;;;;;10408034;28;20237;-81
2022/10/17 12:05:45;;;;;;;6.27;5.07;;;19.20;99.90;;;;;;10383182;28;20220;-81
2022/10/17 12:10:55;;;;;;;7.33;4.50;;;19.30;99.90;;;;;;10423828;23;20234;-78
2022/10/17 12:15:58;;;;;;;11.03;4.93;;;19.30;99.90;;;;;;10361435;28;20194;-78
2022/10/17 12:21:02;;;;;;;5.50;5.00;;;19.30;99.90;;;;;;10374668;28;20690;-77
2022/10/17 12:26:06;;;;;;;5.83;4.70;;;19.30;99.90;;;;;;10372575;28;20279;-77
2022/10/17 12:31:11;;;;;;;6.13;5.53;;;19.40;99.90;;;;;;10373126;28;20222;-77
2022/10/17 12:36:41;;;;;;;5.37;4.97;;;19.50;99.90;;;;;;10371939;28;20197;-77
2022/10/17 12:41:56;;;;;;;5.43;4.97;;;19.60;99.90;;;;;;10371699;28;20237;-76
2022/10/17 12:47:19;;;;;;;4.93;4.67;;;19.60;99.90;;;;;;10405446;28;20570;-77
2022/10/17 12:52:42;;;;;;;6.70;4.20;;;19.70;99.90;;;;;;10383443;28;20749;-77
2022/10/17 12:57:51;;;;;;;5.53;5.13;;;19.80;99.90;;;;;;10370973;28;20750;-77
2022/10/17 13:02:56;;;;;;;8.30;5.00;;;19.90;99.90;;;;;;10369571;28;20632;-78
2022/10/17 13:08:02;;;;;;;5.27;4.80;;;20.10;99.90;;;;;;10344688;28;20209;-77
2022/10/17 13:13:13;;;;;;;5.30;5.00;;;20.20;99.90;;;;;;10333334;28;20222;-76
2022/10/17 13:18:21;;;;;;;6.13;3.80;;;20.10;99.90;;;;;;10399494;28;20726;-77
2022/10/17 13:23:25;;;;;;;5.07;4.60;;;20.10;99.90;;;;;;10352499;28;20266;-76
2022/10/17 13:28:28;;;;;;;5.63;5.07;;;20.00;99.90;;;;;;10368092;28;20297;-77
2022/10/17 13:33:34;;;;;;;8.00;5.40;;;20.00;99.90;;;;;;10406958;28;20222;-77
2022/10/17 13:38:38;;;;;;;5.20;4.60;;;20.20;99.90;;;;;;10379576;28;20226;-77
2022/10/17 13:43:40;;;;;;;7.93;5.30;;;20.20;99.90;;;;;;10392359;28;20635;-77
2022/10/17 13:48:43;;;;;;;7.23;6.50;;;20.30;99.90;;;;;;10384155;28;20206;-77
2022/10/17 13:53:46;;;;;;;6.80;5.70;;;20.30;99.90;;;;;;10369087;28;20222;-77
2022/10/17 13:58:50;;;;;;;5.80;5.17;;;20.30;99.90;;;;;;10372866;28;20210;-77
2022/10/17 14:03:53;;;;;;;6.27;5.67;;;20.20;99.90;;;;;;10367648;28;20226;-75
2022/10/17 14:08:59;;;;;;;5.40;5.00;;;20.20;99.90;;;;;;10368774;28;20226;-77
2022/10/17 14:14:03;;;;;;;7.60;5.30;;;20.20;99.90;;;;;;10377460;28;20222;-77
2022/10/17 14:19:06;;;;;;;5.70;5.10;;;20.10;99.90;;;;;;10409689;28;20265;-77
2022/10/17 14:24:16;;;;;;;5.40;5.03;;;20.10;99.90;;;;;;10409306;28;20198;-77
2022/10/17 14:29:24;;;;;;;8.47;5.70;;;20.10;99.90;;;;;;10380497;28;20191;-76
2022/10/17 14:34:30;;;;;;;11.43;7.43;;;20.00;99.90;;;;;;10377033;28;20194;-77
2022/10/17 14:39:34;;;;;;;5.33;5.00;;;20.00;99.90;;;;;;10377408;28;20254;-77
2022/10/17 14:44:36;;;;;;;5.10;4.80;;;20.00;99.90;;;;;;10376279;28;20237;-77
2022/10/17 14:49:40;;;;;;;3.70;3.40;;;20.00;99.90;;;;;;10375432;28;20211;-77
2022/10/17 14:54:45;;;;;;;8.40;4.93;;;19.90;99.90;;;;;;10375800;28;20657;-78
2022/10/17 14:59:47;;;;;;;7.00;4.63;;;19.90;99.90;;;;;;10375246;28;20222;-77
2022/10/17 15:04:49;;;;;;;5.87;5.37;;;19.90;99.90;;;;;;10375940;28;20211;-77
2022/10/17 15:09:53;;;;;;;7.80;5.57;;;19.80;99.90;;;;;;10358885;28;20644;-77
2022/10/17 15:14:55;;;;;;;5.90;5.30;;;19.80;99.90;;;;;;10376844;28;20273;-77
2022/10/17 15:19:57;;;;;;;11.33;6.00;;;19.80;99.90;;;;;;10374349;28;20237;-78
2022/10/17 15:25:01;;;;;;;9.70;5.80;;;19.80;99.90;;;;;;10374483;28;20689;-77
2022/10/17 15:30:04;;;;;;;8.60;5.10;;;19.90;99.90;;;;;;10374252;28;20215;-77
2022/10/17 15:35:07;;;;;;;9.60;4.90;;;19.90;99.90;;;;;;10377325;28;20605;-77
2022/10/17 15:40:14;;;;;;;10.63;4.50;;;20.10;99.90;;;;;;10372904;28;20305;-78
2022/10/17 15:45:20;;;;;;;12.57;5.20;;;20.20;99.90;;;;;;10371458;28;20182;-78
2022/10/17 15:50:23;;;;;;;13.53;6.30;;;20.10;99.90;;;;;;10380071;28;20222;-80
2022/10/17 15:55:26;;;;;;;10.67;5.57;;;20.10;99.90;;;;;;10382822;28;20846;-80
2022/10/17 16:00:28;;;;;;;11.33;6.03;;;20.10;99.90;;;;;;10381231;28;20689;-80
2022/10/17 16:05:30;;;;;;;14.30;4.73;;;20.10;99.90;;;;;;10389339;28;20203;-78
2022/10/17 16:10:36;;;;;;;15.10;6.30;;;20.00;99.90;;;;;;10384175;28;20227;-80
2022/10/17 16:15:39;;;;;;;19.83;6.60;;;19.90;99.90;;;;;;10396856;28;20238;-79
2022/10/17 16:20:41;;;;;;;9.73;5.93;;;19.70;99.90;;;;;;10381390;28;20222;-80
2022/10/17 16:25:44;;;;;;;6.20;4.70;;;19.60;99.90;;;;;;10382054;28;20534;-80
2022/10/17 16:30:48;;;;;;;9.80;6.17;;;19.50;99.90;;;;;;10378945;28;20215;-78
2022/10/17 16:35:50;;;;;;;8.40;6.67;;;19.40;99.90;;;;;;10379094;28;20206;-78
2022/10/17 16:40:53;;;;;;;8.60;5.70;;;19.30;99.90;;;;;;10357192;28;20250;-79
2022/10/17 16:45:55;;;;;;;7.30;6.60;;;19.20;99.90;;;;;;10374183;28;20217;-78
2022/10/17 16:50:57;;;;;;;7.80;6.53;;;19.10;99.90;;;;;;10373747;28;20265;-78
2022/10/17 16:56:02;;;;;;;12.10;7.60;;;19.00;99.90;;;;;;10375190;28;20277;-78
2022/10/17 17:01:05;;;;;;;14.63;10.27;;;18.90;99.90;;;;;;10375302;28;20314;-77
2022/10/17 17:06:08;;;;;;;9.17;7.60;;;18.80;99.90;;;;;;10375685;28;20282;-78
2022/10/17 17:11:14;;;;;;;9.90;7.43;;;18.70;99.90;;;;;;10373227;28;20302;-78
2022/10/17 17:16:18;;;;;;;16.40;7.10;;;18.70;99.90;;;;;;10374890;28;20197;-78
2022/10/17 17:21:20;;;;;;;9.70;6.30;;;18.70;99.90;;;;;;10374197;28;20218;-78
2022/10/17 17:26:25;;;;;;;11.40;6.87;;;18.60;99.90;;;;;;10373997;28;20203;-78
2022/10/17 17:31:29;;;;;;;16.47;7.80;;;18.60;99.90;;;;;;10373108;28;20214;-78
2022/10/17 17:36:33;;;;;;;13.67;9.50;;;18.50;99.90;;;;;;10374794;28;20248;-78
2022/10/17 17:41:37;;;;;;;13.03;8.53;;;18.50;99.90;;;;;;10373303;28;20261;-78
2022/10/17 17:46:39;;;;;;;12.23;7.50;;;18.40;99.90;;;;;;10375477;28;20195;-78
2022/10/17 17:51:45;;;;;;;7.30;6.70;;;18.40;99.90;;;;;;10379204;28;20272;-78
2022/10/17 17:56:48;;;;;;;15.23;6.63;;;18.40;99.90;;;;;;10377638;28;20204;-78
2022/10/17 18:01:50;;;;;;;8.70;6.50;;;18.30;99.90;;;;;;10374596;28;20260;-79
2022/10/17 18:06:52;;;;;;;8.13;6.40;;;18.30;99.90;;;;;;10392514;28;20307;-78
2022/10/17 18:11:55;;;;;;;7.40;6.60;;;18.20;99.90;;;;;;10382366;28;20227;-79
2022/10/17 18:16:57;;;;;;;20.87;12.30;;;18.10;99.90;;;;;;10382554;28;20198;-79
2022/10/17 18:21:59;;;;;;;16.73;10.30;;;18.10;99.90;;;;;;10383119;28;20249;-78
2022/10/17 18:27:03;;;;;;;12.77;6.10;;;18.10;99.90;;;;;;10383522;28;20193;-79
2022/10/17 18:32:05;;;;;;;18.57;8.13;;;18.00;99.90;;;;;;10379126;28;20252;-79
2022/10/17 18:37:08;;;;;;;8.60;7.70;;;18.00;99.90;;;;;;10383588;28;20215;-78
2022/10/17 18:42:11;;;;;;;13.70;8.13;;;18.00;99.90;;;;;;10376681;28;20226;-77
2022/10/17 18:47:13;;;;;;;18.03;13.10;;;17.90;99.90;;;;;;10376123;28;20206;-77
2022/10/17 18:52:15;;;;;;;23.37;14.10;;;17.90;99.90;;;;;;10378009;28;20211;-78
2022/10/17 18:57:19;;;;;;;24.87;16.83;;;17.90;99.90;;;;;;10379984;28;20234;-78
2022/10/17 19:02:21;;;;;;;33.10;17.97;;;17.90;99.90;;;;;;10380311;28;20218;-77
2022/10/17 19:07:23;;;;;;;48.63;26.17;;;17.80;99.90;;;;;;10379480;28;20203;-78
2022/10/17 19:12:27;;;;;;;41.27;28.13;;;17.80;99.90;;;;;;10380638;28;20237;-77
2022/10/17 19:17:29;;;;;;;84.57;45.50;;;17.70;99.90;;;;;;10379260;28;20234;-78
2022/10/17 19:22:32;;;;;;;45.43;30.80;;;17.70;99.90;;;;;;10375382;28;20584;-78
2022/10/17 19:27:36;;;;;;;23.80;20.83;;;17.70;99.90;;;;;;10379948;28;20663;-78
2022/10/17 19:32:38;;;;;;;15.13;8.83;;;17.70;99.90;;;;;;10380975;28;20601;-78
2022/10/17 19:37:40;;;;;;;15.80;8.43;;;17.60;99.90;;;;;;10380472;28;20222;-78
2022/10/17 19:42:44;;;;;;;14.80;9.47;;;17.60;99.90;;;;;;10378402;28;20749;-78
2022/10/17 19:47:46;;;;;;;14.00;7.90;;;17.60;99.90;;;;;;10378718;28;20216;-78
2022/10/17 19:52:50;;;;;;;12.47;8.50;;;17.60;99.90;;;;;;10379000;28;20225;-78
2022/10/17 19:57:53;;;;;;;10.17;6.83;;;17.50;99.90;;;;;;10378439;28;20671;-77
2022/10/17 20:02:55;;;;;;;8.83;7.17;;;17.50;99.90;;;;;;10378644;28;20218;-78
2022/10/17 20:07:58;;;;;;;8.73;7.80;;;17.50;99.90;;;;;;10388337;28;20523;-78
2022/10/17 20:13:01;;;;;;;12.07;9.97;;;17.40;99.90;;;;;;10378271;28;20218;-78
2022/10/17 20:18:03;;;;;;;10.90;9.80;;;17.40;99.90;;;;;;10375733;28;20225;-78
2022/10/17 20:23:06;;;;;;;10.20;9.20;;;17.40;99.90;;;;;;10375298;28;20227;-78
2022/10/17 20:28:09;;;;;;;10.57;8.73;;;17.30;99.90;;;;;;10376604;28;20301;-78
2022/10/17 20:33:12;;;;;;;10.07;7.67;;;17.30;99.90;;;;;;10377464;28;20215;-78
2022/10/17 20:38:15;;;;;;;9.20;8.30;;;17.30;99.90;;;;;;10378239;28;20195;-78
2022/10/17 20:43:19;;;;;;;8.30;7.60;;;17.30;99.90;;;;;;10375597;28;20234;-78
2022/10/17 20:48:21;;;;;;;7.47;6.73;;;17.20;99.90;;;;;;10372806;28;20318;-77
2022/10/17 20:53:23;;;;;;;11.77;7.13;;;17.20;99.90;;;;;;10370590;28;20557;-78
2022/10/17 20:58:26;;;;;;;8.93;6.60;;;17.20;99.90;;;;;;10374664;28;20188;-79
2022/10/17 21:03:28;;;;;;;12.20;8.10;;;17.20;99.90;;;;;;10383372;28;20218;-77
2022/10/17 21:08:31;;;;;;;8.43;7.70;;;17.20;99.90;;;;;;10374653;28;20209;-78
2022/10/17 21:13:34;;;;;;;8.67;7.03;;;17.10;99.90;;;;;;10392553;28;20249;-77
2022/10/17 21:18:37;;;;;;;8.70;6.60;;;17.10;99.90;;;;;;10377554;28;20633;-77
2022/10/17 21:23:40;;;;;;;13.53;7.00;;;17.10;99.90;;;;;;10405716;28;20215;-77
2022/10/17 21:28:45;;;;;;;8.87;8.07;;;17.00;99.90;;;;;;10378591;28;20723;-78
2022/10/17 21:33:49;;;;;;;17.27;10.17;;;17.00;99.90;;;;;;10378319;28;20678;-76
2022/10/17 21:38:53;;;;;;;11.10;8.90;;;16.90;99.90;;;;;;10411260;28;20206;-76
2022/10/17 21:43:58;;;;;;;8.77;7.87;;;16.90;99.90;;;;;;10393289;28;20218;-78
2022/10/17 21:49:01;;;;;;;13.37;8.30;;;16.90;99.90;;;;;;10380297;28;20201;-77
2022/10/17 21:54:03;;;;;;;8.80;7.57;;;16.90;99.90;;;;;;10410986;28;20233;-77
2022/10/17 21:59:07;;;;;;;7.90;7.10;;;16.90;99.90;;;;;;10381133;28;20191;-77
2022/10/17 22:04:12;;;;;;;8.87;7.77;;;16.80;99.90;;;;;;10369963;28;20265;-78
2022/10/17 22:09:17;;;;;;;9.20;8.30;;;16.80;99.90;;;;;;10369165;28;20206;-76
2022/10/17 22:14:23;;;;;;;13.60;7.40;;;16.80;99.90;;;;;;10368305;28;20187;-77
2022/10/17 22:19:26;;;;;;;9.57;8.40;;;16.70;99.90;;;;;;10368957;28;20206;-77
2022/10/17 22:24:28;;;;;;;8.93;8.10;;;16.70;99.90;;;;;;10369299;28;20199;-78
2022/10/17 22:29:33;;;;;;;8.87;8.00;;;16.70;99.90;;;;;;10367229;28;20306;-77
2022/10/17 22:34:35;;;;;;;12.70;8.10;;;16.70;99.90;;;;;;10369171;28;20191;-76
2022/10/17 22:39:37;;;;;;;11.77;8.90;;;16.70;99.90;;;;;;10368943;28;20218;-77
2022/10/17 22:44:41;;;;;;;7.77;6.97;;;16.70;99.90;;;;;;10368972;28;20218;-77
2022/10/17 22:49:42;;;;;;;10.27;9.47;;;16.70;99.90;;;;;;10375107;28;20242;-76
2022/10/17 22:54:45;;;;;;;16.77;9.80;;;16.60;99.90;;;;;;10376369;28;20202;-76
2022/10/17 22:59:48;;;;;;;11.83;8.00;;;16.60;99.90;;;;;;10384126;28;20254;-78
2022/10/17 23:04:50;;;;;;;10.53;7.67;;;16.60;99.90;;;;;;10397396;28;20293;-78
2022/10/17 23:09:52;;;;;;;8.13;6.97;;;16.60;99.90;;;;;;10401980;28;20236;-77
2022/10/17 23:14:55;;;;;;;8.40;7.53;;;16.60;99.90;;;;;;10396287;28;20666;-79
2022/10/17 23:19:57;;;;;;;7.83;6.90;;;16.60;99.90;;;;;;10399246;28;20646;-79
2022/10/17 23:24:59;;;;;;;8.90;8.20;;;16.50;99.90;;;;;;10397795;28;20269;-79
2022/10/17 23:30:04;;;;;;;8.63;7.83;;;16.50;99.90;;;;;;10400025;28;20215;-79
2022/10/17 23:35:07;;;;;;;13.20;7.03;;;16.50;99.90;;;;;;10403374;28;20542;-79
2022/10/17 23:40:11;;;;;;;8.30;7.07;;;16.50;99.90;;;;;;10399453;28;20662;-78
2022/10/17 23:45:14;;;;;;;11.70;8.60;;;16.40;99.90;;;;;;10393705;28;20214;-76
2022/10/17 23:50:16;;;;;;;9.10;7.87;;;16.40;99.90;;;;;;10384077;28;20217;-78
2022/10/17 23:55:18;;;;;;;8.17;7.47;;;16.40;99.90;;;;;;10373363;28;20198;-76
